Time;durP1;ratioP1;P1;durP2;ratioP2;P2;SDS_P1;SDS_P2;PMS_P1;PMS_P2;Temp;Humidity;BMP_temperature;BMP_pressure;BME280_temperature;BME280_humidity;BME280_pressure;Samples;Min_cycle;Max_cycle;Signal;HPM_P1;HPM_P2
2021/03/11 00:00:11;;;;;;;29.70;17.10;;;23.00;24.00;;;;;;6234828;28;83409;-65
2021/03/11 00:03:14;;;;;;;30.73;17.17;;;23.00;23.90;;;;;;6236986;28;83419;-66
2021/03/11 00:06:15;;;;;;;33.80;18.15;;;23.00;23.90;;;;;;6231927;28;83267;-66
2021/03/11 00:09:15;;;;;;;28.65;16.50;;;22.90;23.90;;;;;;6242492;28;83458;-66
2021/03/11 00:12:16;;;;;;;31.63;17.33;;;23.00;24.00;;;;;;6235102;28;82803;-64
2021/03/11 00:15:16;;;;;;;30.88;17.77;;;23.00;24.00;;;;;;6236340;28;83942;-64
2021/03/11 00:18:17;;;;;;;32.65;17.00;;;22.90;24.00;;;;;;6233208;28;86767;-64
2021/03/11 00:21:18;;;;;;;34.33;18.08;;;22.90;24.10;;;;;;6237141;28;83906;-65
2021/03/11 00:24:18;;;;;;;37.63;18.13;;;22.90;24.00;;;;;;6237165;27;83221;-65
2021/03/11 00:27:19;;;;;;;35.85;18.88;;;22.90;24.00;;;;;;6230182;28;83161;-65
2021/03/11 00:30:19;;;;;;;37.22;18.85;;;22.90;24.00;;;;;;6231826;28;84260;-65
2021/03/11 00:33:20;;;;;;;31.88;17.85;;;22.90;24.00;;;;;;6242610;28;83481;-65
2021/03/11 00:36:20;;;;;;;36.00;18.98;;;22.90;24.10;;;;;;6229377;28;82863;-65
2021/03/11 00:39:21;;;;;;;34.75;18.25;;;22.90;24.00;;;;;;6241053;28;82765;-64
2021/03/11 00:42:22;;;;;;;35.85;19.60;;;22.90;24.00;;;;;;6233590;28;83940;-65
2021/03/11 00:45:22;;;;;;;31.60;17.15;;;22.90;24.00;;;;;;6227410;28;87491;-64
2021/03/11 00:48:24;;;;;;;32.55;19.02;;;22.90;24.00;;;;;;6213345;27;85779;-64
2021/03/11 00:51:25;;;;;;;37.92;19.35;;;22.90;24.00;;;;;;6226069;28;85528;-65
2021/03/11 00:54:25;;;;;;;35.22;19.10;;;22.90;24.00;;;;;;6237262;27;83989;-64
2021/03/11 00:57:26;;;;;;;34.72;18.83;;;22.90;24.00;;;;;;6227116;28;85793;-65
2021/03/11 01:00:27;;;;;;;32.40;18.35;;;22.90;24.00;;;;;;6226530;28;84289;-62
2021/03/11 01:03:51;;;;;;;35.25;18.70;;;22.90;24.10;;;;;;6237685;28;86235;-65
2021/03/11 01:06:51;;;;;;;38.13;20.23;;;22.90;24.10;;;;;;6235931;28;83925;-64
2021/03/11 01:09:53;;;;;;;37.30;19.70;;;22.90;24.20;;;;;;6236217;28;83765;-65
2021/03/11 01:12:53;;;;;;;34.20;19.13;;;22.90;24.20;;;;;;6238511;28;83141;-65
2021/03/11 01:15:54;;;;;;;34.95;19.40;;;22.90;24.30;;;;;;6235581;28;84363;-66
2021/03/11 01:18:54;;;;;;;37.67;19.10;;;22.90;24.30;;;;;;6233829;28;83572;-66
2021/03/11 01:21:55;;;;;;;37.65;19.45;;;22.90;24.40;;;;;;6235739;28;83124;-65
2021/03/11 01:24:56;;;;;;;37.53;20.48;;;22.80;24.30;;;;;;6233649;27;84599;-66
2021/03/11 01:27:56;;;;;;;39.97;19.95;;;22.80;24.30;;;;;;6241649;28;83200;-65
2021/03/11 01:30:57;;;;;;;37.60;18.70;;;22.80;24.30;;;;;;6236428;28;83741;-66
2021/03/11 01:33:57;;;;;;;40.88;19.98;;;22.90;24.30;;;;;;6242317;28;83387;-65
2021/03/11 01:36:58;;;;;;;37.28;19.92;;;22.90;24.30;;;;;;6246848;28;83024;-66
2021/03/11 01:39:58;;;;;;;39.83;20.55;;;22.80;24.30;;;;;;6235679;28;83597;-65
2021/03/11 01:42:59;;;;;;;36.85;20.73;;;22.80;24.20;;;;;;6217361;28;83239;-66
2021/03/11 01:45:59;;;;;;;39.35;19.73;;;22.80;24.20;;;;;;6239597;28;83768;-66
2021/03/11 01:49:00;;;;;;;36.60;19.88;;;22.80;24.20;;;;;;6240684;28;82955;-65
2021/03/11 01:52:01;;;;;;;30.55;17.77;;;22.80;24.20;;;;;;6223600;28;86055;-67
2021/03/11 01:55:01;;;;;;;34.08;19.08;;;22.80;24.10;;;;;;6235036;27;84031;-67
2021/03/11 01:58:02;;;;;;;39.35;19.63;;;22.80;24.10;;;;;;6234474;28;84769;-65
2021/03/11 02:01:02;;;;;;;33.53;18.25;;;22.80;24.00;;;;;;6210066;28;85667;-65
2021/03/11 02:04:03;;;;;;;35.40;18.80;;;22.80;24.00;;;;;;6232257;28;83430;-63
2021/03/11 02:07:03;;;;;;;35.60;17.77;;;22.80;24.00;;;;;;6228368;28;83278;-64
2021/03/11 02:10:04;;;;;;;32.72;17.38;;;22.80;23.90;;;;;;6213819;28;86253;-65
2021/03/11 02:13:04;;;;;;;33.63;19.10;;;22.80;24.00;;;;;;6235370;28;83365;-68
2021/03/11 02:16:06;;;;;;;37.22;18.20;;;22.80;23.90;;;;;;6239108;28;87634;-68
2021/03/11 02:19:07;;;;;;;32.85;18.75;;;22.70;23.90;;;;;;6238538;28;83867;-68
2021/03/11 02:22:07;;;;;;;30.75;17.77;;;22.70;23.90;;;;;;6238186;28;83281;-65
2021/03/11 02:25:08;;;;;;;40.25;18.90;;;22.70;23.80;;;;;;6231463;27;83620;-67
2021/03/11 02:28:10;;;;;;;35.00;18.50;;;22.70;23.80;;;;;;6242580;28;84062;-65
2021/03/11 02:31:10;;;;;;;30.02;17.48;;;22.70;23.90;;;;;;6206595;28;86193;-67
2021/03/11 02:34:11;;;;;;;33.95;19.20;;;22.70;23.80;;;;;;6233518;28;83244;-66
2021/03/11 02:37:12;;;;;;;31.65;17.27;;;22.70;23.90;;;;;;6232231;28;83407;-66
2021/03/11 02:40:12;;;;;;;30.65;17.00;;;22.70;23.90;;;;;;6229653;28;83196;-66
2021/03/11 02:43:13;;;;;;;31.10;16.20;;;22.70;23.90;;;;;;6234516;28;83129;-66
2021/03/11 02:46:14;;;;;;;27.85;16.45;;;22.70;23.90;;;;;;6229510;28;84120;-66
2021/03/11 02:49:14;;;;;;;30.98;16.35;;;22.70;24.50;;;;;;6214437;28;84251;-66
2021/03/11 02:52:15;;;;;;;31.55;16.75;;;22.80;24.10;;;;;;6235692;28;83043;-66
2021/03/11 02:55:15;;;;;;;27.95;16.27;;;22.70;24.10;;;;;;6237906;28;83808;-66
2021/03/11 02:58:16;;;;;;;29.10;16.27;;;22.70;24.10;;;;;;6227959;27;83420;-66
2021/03/11 03:01:16;;;;;;;27.65;15.95;;;22.70;24.10;;;;;;6226639;28;83923;-66
2021/03/11 03:04:17;;;;;;;31.08;15.38;;;22.70;24.10;;;;;;6233573;28;83474;-66
2021/03/11 03:07:17;;;;;;;27.95;15.05;;;22.70;24.60;;;;;;6241937;28;83681;-66
2021/03/11 03:10:18;;;;;;;26.45;14.63;;;22.70;24.20;;;;;;6226523;28;83935;-66
2021/03/11 03:13:19;;;;;;;26.17;14.20;;;22.70;24.20;;;;;;6235110;27;83628;-66
2021/03/11 03:16:19;;;;;;;27.42;15.07;;;22.60;24.10;;;;;;6245603;28;84561;-67
2021/03/11 03:19:20;;;;;;;32.30;15.80;;;22.60;24.10;;;;;;6243337;28;83976;-66
2021/03/11 03:22:20;;;;;;;26.85;15.38;;;22.70;24.10;;;;;;6239166;28;84128;-65
2021/03/11 03:25:21;;;;;;;27.50;15.57;;;22.70;24.10;;;;;;6246961;27;84319;-66
2021/03/11 03:28:21;;;;;;;24.42;13.20;;;22.70;24.20;;;;;;6237606;28;83653;-66
2021/03/11 03:31:22;;;;;;;24.23;14.15;;;22.60;24.60;;;;;;6245078;28;83563;-66
2021/03/11 03:34:22;;;;;;;24.52;13.73;;;22.70;25.00;;;;;;6236996;28;83239;-66
2021/03/11 03:37:23;;;;;;;25.38;13.70;;;22.70;25.20;;;;;;6241068;28;83067;-66
2021/03/11 03:40:23;;;;;;;26.80;12.98;;;22.60;25.20;;;;;;6241763;28;83106;-65
2021/03/11 03:43:24;;;;;;;26.02;14.60;;;22.60;25.30;;;;;;6224144;28;84195;-66
2021/03/11 03:46:25;;;;;;;25.98;13.48;;;22.70;25.40;;;;;;6218200;28;83617;-65
2021/03/11 03:49:25;;;;;;;23.42;13.75;;;22.70;25.50;;;;;;6242462;28;83800;-65
2021/03/11 03:52:26;;;;;;;25.30;13.95;;;22.60;25.50;;;;;;6234497;28;83714;-65
2021/03/11 03:55:26;;;;;;;26.33;12.98;;;22.70;25.60;;;;;;6242428;28;83164;-65
2021/03/11 03:58:27;;;;;;;23.08;13.10;;;22.60;25.60;;;;;;6248626;28;84023;-67
2021/03/11 04:01:27;;;;;;;27.40;13.55;;;22.70;25.70;;;;;;6241092;28;83359;-65
2021/03/11 04:04:28;;;;;;;25.08;13.85;;;22.60;25.70;;;;;;6247365;27;83963;-65
2021/03/11 04:07:28;;;;;;;27.05;14.23;;;22.60;25.80;;;;;;6240422;28;84013;-65
2021/03/11 04:10:29;;;;;;;29.83;15.05;;;22.60;25.70;;;;;;6239420;28;83651;-64
2021/03/11 04:13:29;;;;;;;27.70;15.02;;;22.60;25.80;;;;;;6238312;28;83597;-67
2021/03/11 04:16:30;;;;;;;26.08;15.35;;;22.60;25.80;;;;;;6233652;28;84055;-67
2021/03/11 04:19:31;;;;;;;26.63;14.57;;;22.60;25.70;;;;;;6234313;28;84427;-66
2021/03/11 04:22:31;;;;;;;31.58;16.45;;;22.70;25.70;;;;;;6241472;27;84017;-66
2021/03/11 04:25:32;;;;;;;34.95;17.80;;;22.80;25.20;;;;;;6233301;28;84006;-66
2021/03/11 04:28:32;;;;;;;34.50;19.70;;;22.80;24.80;;;;;;6235025;28;84747;-65
2021/03/11 04:31:33;;;;;;;33.97;19.42;;;22.80;24.70;;;;;;6224510;28;83271;-66
2021/03/11 04:34:33;;;;;;;38.13;20.02;;;22.80;24.60;;;;;;6236194;27;84813;-66
2021/03/11 04:37:34;;;;;;;35.22;18.92;;;22.80;24.60;;;;;;6232136;28;82943;-66
2021/03/11 04:40:35;;;;;;;38.90;20.92;;;22.90;24.50;;;;;;6232622;28;83310;-67
2021/03/11 04:43:35;;;;;;;41.53;21.35;;;22.90;24.30;;;;;;6245721;28;83957;-65
2021/03/11 04:46:36;;;;;;;39.75;21.13;;;23.00;24.70;;;;;;6246232;28;83208;-65
2021/03/11 04:49:36;;;;;;;34.83;20.27;;;23.00;24.20;;;;;;6231648;28;84539;-66
2021/03/11 04:52:37;;;;;;;36.30;20.40;;;23.10;24.30;;;;;;6242501;28;83184;-65
2021/03/11 04:55:37;;;;;;;38.13;20.50;;;23.10;24.20;;;;;;6225741;28;86155;-65
2021/03/11 04:58:38;;;;;;;37.85;22.17;;;23.10;24.10;;;;;;6235915;28;83481;-64
2021/03/11 05:01:38;;;;;;;41.78;22.38;;;23.20;24.20;;;;;;6233902;28;83157;-65
2021/03/11 05:04:39;;;;;;;37.38;21.77;;;23.20;24.20;;;;;;6237795;27;85353;-66
2021/03/11 05:07:39;;;;;;;39.22;20.35;;;23.20;24.10;;;;;;6226774;28;85640;-65
2021/03/11 05:10:40;;;;;;;36.13;20.98;;;23.20;24.10;;;;;;6246627;28;85772;-66
2021/03/11 05:13:41;;;;;;;36.35;21.40;;;23.20;24.00;;;;;;6240778;28;83537;-65
2021/03/11 05:16:41;;;;;;;41.15;22.98;;;23.30;24.00;;;;;;6236302;28;83375;-66
2021/03/11 05:19:42;;;;;;;43.20;23.02;;;23.30;24.00;;;;;;6243843;28;83053;-66
2021/03/11 05:22:42;;;;;;;44.40;23.25;;;23.30;24.00;;;;;;6225039;28;84267;-66
2021/03/11 05:25:43;;;;;;;43.15;24.20;;;23.30;23.90;;;;;;6241262;28;82879;-65
2021/03/11 05:28:43;;;;;;;41.50;23.35;;;23.30;23.90;;;;;;6235533;28;83252;-67
2021/03/11 05:31:44;;;;;;;41.20;24.67;;;23.40;23.80;;;;;;6243975;28;85850;-66
2021/03/11 05:34:45;;;;;;;42.15;24.00;;;23.40;23.60;;;;;;6241042;27;83409;-68
2021/03/11 05:37:45;;;;;;;45.38;25.33;;;23.40;24.00;;;;;;6240313;28;83975;-65
2021/03/11 05:40:46;;;;;;;36.38;19.83;;;23.40;24.60;;;;;;6243473;28;83387;-67
2021/03/11 05:43:46;;;;;;;37.80;19.92;;;23.30;25.90;;;;;;6236328;28;83430;-68
2021/03/11 05:46:47;;;;;;;31.08;17.40;;;23.30;26.40;;;;;;6241195;28;83354;-68
2021/03/11 05:49:47;;;;;;;27.58;16.67;;;23.30;27.30;;;;;;6229476;28;83294;-69
2021/03/11 05:52:48;;;;;;;29.73;16.33;;;23.30;27.70;;;;;;6243108;28;83399;-69
2021/03/11 05:55:48;;;;;;;26.92;14.63;;;23.30;28.00;;;;;;6234842;28;83442;-67
2021/03/11 05:58:49;;;;;;;24.35;13.68;;;23.30;28.40;;;;;;6231840;28;84707;-68
2021/03/11 06:01:50;;;;;;;23.75;14.10;;;23.30;28.90;;;;;;6244696;28;84302;-67
2021/03/11 06:04:50;;;;;;;23.65;14.23;;;23.30;28.30;;;;;;6242063;27;83262;-69
2021/03/11 06:07:51;;;;;;;25.90;14.85;;;23.30;28.90;;;;;;6236308;28;83863;-68
2021/03/11 06:10:51;;;;;;;27.30;14.85;;;23.30;28.70;;;;;;6229014;28;83470;-69
2021/03/11 06:13:52;;;;;;;22.25;13.45;;;23.30;29.70;;;;;;6235295;28;83640;-71
2021/03/11 06:16:52;;;;;;;24.15;14.32;;;23.30;30.70;;;;;;6233908;28;83222;-67
2021/03/11 06:19:53;;;;;;;22.92;13.68;;;23.30;30.90;;;;;;6210719;28;83262;-69
2021/03/11 06:22:54;;;;;;;26.77;14.93;;;23.30;30.40;;;;;;6242524;28;83075;-67
2021/03/11 06:25:55;;;;;;;22.55;12.80;;;23.30;31.10;;;;;;6243235;28;84493;-69
2021/03/11 06:28:55;;;;;;;23.33;13.18;;;23.30;31.30;;;;;;6237035;28;82990;-70
2021/03/11 06:31:56;;;;;;;19.95;12.38;;;23.30;31.80;;;;;;6240672;28;84883;-72
2021/03/11 06:34:56;;;;;;;23.55;13.73;;;23.30;31.90;;;;;;6231494;28;83958;-69
2021/03/11 06:37:57;;;;;;;22.13;13.15;;;23.30;32.20;;;;;;6247024;28;83380;-69
2021/03/11 06:40:57;;;;;;;25.25;12.98;;;23.30;31.40;;;;;;6238421;27;83504;-70
2021/03/11 06:43:58;;;;;;;21.00;12.63;;;23.30;32.40;;;;;;6228719;28;83746;-69
2021/03/11 06:46:58;;;;;;;22.48;13.07;;;23.30;30.20;;;;;;6211638;28;84044;-70
2021/03/11 06:49:59;;;;;;;29.98;14.80;;;23.30;31.80;;;;;;6231809;28;83287;-68
2021/03/11 06:53:00;;;;;;;20.55;12.63;;;23.30;31.30;;;;;;6249183;28;83121;-71
2021/03/11 06:56:00;;;;;;;28.10;12.63;;;23.30;33.60;;;;;;6240116;28;83452;-70
2021/03/11 06:59:01;;;;;;;27.40;13.13;;;23.30;34.10;;;;;;6236601;28;83853;-68
2021/03/11 07:02:01;;;;;;;24.05;13.35;;;23.30;32.80;;;;;;6218670;28;82886;-70
2021/03/11 07:05:02;;;;;;;28.13;14.02;;;23.20;32.60;;;;;;6250979;28;83796;-68
2021/03/11 07:08:02;;;;;;;23.13;13.10;;;23.20;32.60;;;;;;6226695;28;83580;-69
2021/03/11 07:11:03;;;;;;;22.48;12.68;;;23.20;32.60;;;;;;6246284;27;83681;-69
2021/03/11 07:14:03;;;;;;;24.25;13.85;;;23.20;32.40;;;;;;6227583;28;84039;-66
2021/03/11 07:17:04;;;;;;;26.15;13.52;;;23.20;32.40;;;;;;6244301;28;84161;-66
2021/03/11 07:20:04;;;;;;;19.95;11.20;;;23.20;33.00;;;;;;6248140;28;84185;-66
2021/03/11 07:23:05;;;;;;;22.60;12.40;;;23.20;32.80;;;;;;6243589;28;83729;-65
2021/03/11 07:26:05;;;;;;;23.95;12.80;;;23.20;33.00;;;;;;6248353;27;83029;-67
2021/03/11 07:29:06;;;;;;;18.35;10.73;;;23.20;32.90;;;;;;6248249;28;83400;-67
2021/03/11 07:32:07;;;;;;;21.02;11.73;;;23.20;33.60;;;;;;6227067;28;83866;-67
2021/03/11 07:35:07;;;;;;;23.98;12.32;;;23.20;33.30;;;;;;6243174;27;84256;-71
2021/03/11 07:38:08;;;;;;;169.02;63.10;;;23.20;33.80;;;;;;6244634;28;83106;-72
2021/03/11 07:41:09;;;;;;;325.23;121.93;;;23.20;33.80;;;;;;6234552;28;82927;-71
2021/03/11 07:44:10;;;;;;;350.60;123.30;;;23.20;34.20;;;;;;6214618;28;85823;-70
2021/03/11 07:47:10;;;;;;;251.45;95.10;;;23.20;34.10;;;;;;6242013;28;86432;-69
2021/03/11 07:50:11;;;;;;;187.23;74.07;;;23.20;34.00;;;;;;6244004;28;90307;-69
2021/03/11 07:53:12;;;;;;;146.60;59.53;;;23.20;33.90;;;;;;6241037;28;85031;-68
2021/03/11 07:56:12;;;;;;;122.07;47.38;;;23.20;33.70;;;;;;6244894;28;83493;-69
2021/03/11 07:59:13;;;;;;;106.75;41.00;;;23.20;34.10;;;;;;6238593;28;83566;-69
2021/03/11 08:02:14;;;;;;;77.22;33.05;;;23.20;34.70;;;;;;6238891;28;83715;-71
2021/03/11 08:05:14;;;;;;;73.75;28.73;;;23.20;34.80;;;;;;6229674;27;83690;-67
2021/03/11 08:08:15;;;;;;;64.15;27.83;;;23.20;35.00;;;;;;6239661;28;83408;-70
2021/03/11 08:11:15;;;;;;;57.35;24.23;;;23.20;34.00;;;;;;6236986;28;83609;-71
2021/03/11 08:14:16;;;;;;;52.40;20.80;;;23.20;35.90;;;;;;6220000;28;84147;-69
2021/03/11 08:17:16;;;;;;;39.65;19.13;;;23.30;36.60;;;;;;6239054;28;84180;-69
2021/03/11 08:20:17;;;;;;;40.40;18.85;;;23.30;36.30;;;;;;6238711;28;83386;-70
2021/03/11 08:23:17;;;;;;;38.78;18.20;;;23.30;36.90;;;;;;6235407;27;83682;-70
2021/03/11 08:26:18;;;;;;;39.55;18.05;;;23.30;36.90;;;;;;6240342;28;84199;-70
2021/03/11 08:29:18;;;;;;;32.90;16.02;;;23.30;37.90;;;;;;6234740;28;83352;-70
2021/03/11 08:32:19;;;;;;;31.33;15.52;;;23.20;38.40;;;;;;6230401;28;94015;-69
2021/03/11 08:35:19;;;;;;;33.17;14.80;;;23.30;38.80;;;;;;6240562;28;83443;-70
2021/03/11 08:38:20;;;;;;;31.90;13.70;;;23.30;39.00;;;;;;6233250;28;83428;-69
2021/03/11 08:41:20;;;;;;;33.53;15.13;;;23.30;39.50;;;;;;6236414;28;83659;-69
2021/03/11 08:44:21;;;;;;;27.50;12.85;;;23.30;39.80;;;;;;6241703;28;83160;-69
2021/03/11 08:47:21;;;;;;;28.95;12.35;;;23.30;40.00;;;;;;6220988;27;85687;-70
2021/03/11 08:50:22;;;;;;;30.30;12.35;;;23.30;39.70;;;;;;6223005;27;84736;-70
2021/03/11 08:53:22;;;;;;;26.13;11.70;;;23.30;40.10;;;;;;6238330;28;83747;-70
2021/03/11 08:56:23;;;;;;;25.00;11.02;;;23.30;40.00;;;;;;6237217;27;84276;-70
2021/03/11 08:59:23;;;;;;;20.92;11.75;;;23.30;40.30;;;;;;6240286;28;83505;-70
2021/03/11 09:02:24;;;;;;;20.27;9.90;;;23.40;40.10;;;;;;6240372;28;83739;-70
2021/03/11 09:05:24;;;;;;;17.83;9.07;;;23.40;40.10;;;;;;6228668;28;83951;-70
2021/03/11 09:08:25;;;;;;;14.05;8.25;;;23.30;40.60;;;;;;6224448;28;80862;-69
2021/03/11 09:11:25;;;;;;;18.50;8.65;;;23.30;40.30;;;;;;6236010;28;80876;-68
2021/03/11 09:14:27;;;;;;;22.65;7.80;;;23.40;40.50;;;;;;6241189;28;80815;-71
2021/03/11 09:17:27;;;;;;;13.35;7.68;;;23.40;39.40;;;;;;6240022;28;81258;-71
2021/03/11 09:20:28;;;;;;;14.23;7.90;;;23.50;38.70;;;;;;6229641;28;81578;-70
2021/03/11 09:23:28;;;;;;;13.57;7.68;;;23.50;39.20;;;;;;6235223;28;80474;-67
2021/03/11 09:26:29;;;;;;;11.93;6.82;;;23.50;39.80;;;;;;6246700;28;90884;-70
2021/03/11 09:29:30;;;;;;;17.27;7.47;;;23.50;40.10;;;;;;6246407;28;80718;-72
2021/03/11 09:32:30;;;;;;;12.27;7.30;;;23.50;40.80;;;;;;6244200;28;81835;-70
2021/03/11 09:35:31;;;;;;;13.00;6.43;;;23.50;41.20;;;;;;6214493;28;81219;-70
2021/03/11 09:38:31;;;;;;;19.10;5.85;;;23.50;40.40;;;;;;6243625;28;81576;-69
2021/03/11 09:41:32;;;;;;;12.85;6.70;;;23.50;40.10;;;;;;6230624;28;81784;-70
2021/03/11 09:44:32;;;;;;;15.25;6.05;;;23.50;40.80;;;;;;6246336;28;81205;-69
2021/03/11 09:47:33;;;;;;;12.77;6.22;;;23.50;40.50;;;;;;6249643;28;80983;-71
2021/03/11 09:50:33;;;;;;;10.77;6.00;;;23.50;40.60;;;;;;6248268;28;80813;-71
2021/03/11 09:53:34;;;;;;;12.00;6.38;;;23.50;40.10;;;;;;6238980;28;83041;-71
2021/03/11 09:56:34;;;;;;;13.50;6.65;;;23.50;40.10;;;;;;6232790;27;80761;-72
2021/03/11 09:59:35;;;;;;;11.98;6.72;;;23.50;41.20;;;;;;6239846;28;80669;-71
2021/03/11 10:02:35;;;;;;;26.90;9.43;;;23.60;41.60;;;;;;6241488;28;80796;-71
2021/03/11 10:05:36;;;;;;;35.88;12.20;;;23.60;42.30;;;;;;6240447;28;83561;-72
2021/03/11 10:08:36;;;;;;;60.88;16.92;;;23.60;41.60;;;;;;6244560;27;82934;-69
2021/03/11 10:11:37;;;;;;;72.40;20.40;;;23.60;42.30;;;;;;6235555;28;83731;-69
2021/03/11 10:14:38;;;;;;;69.53;20.40;;;23.60;43.70;;;;;;6231869;28;83286;-70
2021/03/11 10:17:38;;;;;;;92.20;24.83;;;23.60;44.10;;;;;;6237268;28;83796;-70
2021/03/11 10:20:39;;;;;;;108.35;29.20;;;23.70;44.10;;;;;;6209373;28;83345;-71
2021/03/11 10:23:39;;;;;;;97.10;29.48;;;23.70;45.80;;;;;;6240418;27;84026;-71
2021/03/11 10:26:40;;;;;;;81.88;28.27;;;23.70;45.00;;;;;;6233245;28;84453;-69
2021/03/11 10:29:40;;;;;;;100.03;27.23;;;23.70;44.60;;;;;;6232696;28;92066;-67
2021/03/11 10:32:41;;;;;;;92.05;28.95;;;23.70;44.00;;;;;;6234246;28;83414;-68
2021/03/11 10:35:43;;;;;;;79.70;23.77;;;23.70;44.80;;;;;;6240193;28;84465;-68
2021/03/11 10:38:44;;;;;;;70.32;21.30;;;23.70;45.80;;;;;;6232980;28;83363;-69
2021/03/11 10:41:44;;;;;;;57.83;18.60;;;23.70;44.40;;;;;;6238464;28;84057;-72
2021/03/11 10:44:45;;;;;;;47.60;15.00;;;23.70;43.90;;;;;;6234913;27;82883;-75
2021/03/11 10:47:45;;;;;;;42.42;13.93;;;23.70;44.70;;;;;;6243145;27;84656;-73
2021/03/11 10:50:46;;;;;;;38.65;13.05;;;23.60;44.20;;;;;;6240942;28;83486;-73
2021/03/11 10:53:47;;;;;;;35.88;13.38;;;23.60;44.20;;;;;;6244846;28;84029;-71
2021/03/11 10:56:48;;;;;;;25.35;10.95;;;23.60;43.10;;;;;;6229009;28;83478;-70
2021/03/11 10:59:48;;;;;;;29.60;10.38;;;23.60;41.00;;;;;;6241358;28;83439;-71
2021/03/11 11:02:49;;;;;;;22.80;10.02;;;23.60;41.80;;;;;;6235279;28;83621;-70
2021/03/11 11:05:49;;;;;;;28.27;10.10;;;23.50;40.70;;;;;;6234154;27;83462;-71
2021/03/11 11:08:50;;;;;;;27.35;9.88;;;23.50;39.70;;;;;;6232139;28;83592;-67
2021/03/11 11:11:50;;;;;;;21.80;8.27;;;23.50;40.10;;;;;;6248026;28;82974;-66
2021/03/11 11:14:51;;;;;;;20.25;7.55;;;23.50;39.40;;;;;;6242371;28;80473;-68
2021/03/11 11:17:51;;;;;;;16.90;7.13;;;23.50;39.80;;;;;;6235614;28;80726;-72
2021/03/11 11:20:52;;;;;;;17.25;6.90;;;23.40;39.20;;;;;;6245118;28;82886;-73
2021/03/11 11:23:52;;;;;;;13.77;6.45;;;23.40;38.60;;;;;;6233488;27;80633;-71
2021/03/11 11:26:53;;;;;;;15.02;5.80;;;23.50;39.80;;;;;;6241667;28;80819;-73
2021/03/11 11:29:53;;;;;;;11.70;4.70;;;23.50;39.10;;;;;;6247115;28;81810;-71
2021/03/11 11:32:54;;;;;;;9.13;4.30;;;23.50;39.90;;;;;;6244582;27;80669;-71
2021/03/11 11:35:55;;;;;;;8.45;4.75;;;23.40;39.20;;;;;;6244914;28;80843;-71
2021/03/11 11:38:55;;;;;;;8.48;4.22;;;23.40;39.00;;;;;;6251164;28;80471;-70
2021/03/11 11:41:56;;;;;;;11.18;5.15;;;23.40;39.00;;;;;;6253252;28;81192;-69
2021/03/11 11:44:57;;;;;;;9.57;4.50;;;23.40;38.80;;;;;;6243041;27;80666;-69
2021/03/11 11:47:57;;;;;;;11.75;4.80;;;23.40;37.90;;;;;;6241979;28;80977;-70
2021/03/11 11:50:58;;;;;;;9.68;4.30;;;23.40;37.50;;;;;;6244778;27;80552;-70
2021/03/11 11:53:58;;;;;;;7.30;4.15;;;23.40;37.10;;;;;;6238317;28;80939;-69
2021/03/11 11:56:59;;;;;;;11.18;5.28;;;23.40;37.10;;;;;;6240532;27;80439;-68
2021/03/11 11:59:59;;;;;;;6.70;3.83;;;23.40;37.00;;;;;;6247355;27;83258;-70
2021/03/11 12:03:00;;;;;;;6.45;4.20;;;23.40;36.60;;;;;;6244099;27;81449;-68
2021/03/11 12:06:00;;;;;;;6.80;4.05;;;23.40;36.40;;;;;;6207531;28;83617;-69
2021/03/11 12:09:01;;;;;;;6.60;4.13;;;23.40;35.20;;;;;;6235527;27;80616;-69
2021/03/11 12:12:02;;;;;;;6.70;3.70;;;23.40;34.80;;;;;;6244205;27;80873;-70
2021/03/11 12:15:02;;;;;;;9.32;4.25;;;23.40;34.10;;;;;;6246458;27;81129;-70
2021/03/11 12:18:03;;;;;;;6.93;4.43;;;23.40;34.10;;;;;;6224750;28;81887;-70
2021/03/11 12:21:03;;;;;;;8.38;4.78;;;23.40;33.60;;;;;;6253798;27;81942;-70
2021/03/11 12:24:04;;;;;;;7.72;5.63;;;23.40;34.10;;;;;;6243300;27;81304;-70
2021/03/11 12:27:04;;;;;;;10.45;5.22;;;23.40;33.50;;;;;;6248692;27;80539;-70
2021/03/11 12:30:05;;;;;;;8.65;4.90;;;23.40;32.50;;;;;;6247592;27;80700;-70
2021/03/11 12:33:05;;;;;;;10.93;5.22;;;23.40;32.40;;;;;;6229233;27;83766;-69
2021/03/11 12:36:06;;;;;;;9.15;4.93;;;23.40;31.90;;;;;;6245766;27;80934;-68
2021/03/11 12:39:07;;;;;;;10.18;5.32;;;23.40;31.40;;;;;;6243961;27;81027;-68
2021/03/11 12:42:08;;;;;;;7.75;4.78;;;23.40;31.90;;;;;;6248066;27;81448;-71
2021/03/11 12:45:08;;;;;;;7.88;5.03;;;23.40;31.30;;;;;;6245786;27;81466;-69
2021/03/11 12:48:10;;;;;;;9.20;5.60;;;23.40;31.10;;;;;;6241223;27;80740;-70
2021/03/11 12:51:10;;;;;;;8.60;5.28;;;23.40;30.70;;;;;;6239980;27;80533;-67
2021/03/11 12:54:11;;;;;;;10.13;5.30;;;23.40;30.40;;;;;;6240177;27;81559;-66
2021/03/11 12:57:11;;;;;;;8.48;5.55;;;23.40;31.00;;;;;;6246321;27;80971;-64
2021/03/11 13:00:12;;;;;;;6.18;4.15;;;23.40;30.60;;;;;;6244213;27;81748;-66
2021/03/11 13:03:13;;;;;;;11.65;5.25;;;23.40;30.40;;;;;;6236383;27;81566;-68
2021/03/11 13:06:13;;;;;;;6.97;4.47;;;23.40;31.10;;;;;;6243483;27;80771;-66
2021/03/11 13:09:14;;;;;;;10.98;4.80;;;23.40;30.10;;;;;;6238095;27;81499;-67
2021/03/11 13:12:14;;;;;;;7.90;4.63;;;23.40;30.30;;;;;;6245018;27;80662;-67
2021/03/11 13:15:15;;;;;;;11.02;5.53;;;23.50;30.70;;;;;;6240679;27;80725;-66
2021/03/11 13:18:15;;;;;;;6.25;4.13;;;23.40;31.70;;;;;;6243298;27;81092;-66
2021/03/11 13:21:16;;;;;;;8.45;4.38;;;23.40;31.30;;;;;;6194958;27;80824;-67
2021/03/11 13:24:16;;;;;;;7.43;4.70;;;23.40;30.80;;;;;;6238718;27;81386;-68
2021/03/11 13:27:17;;;;;;;9.68;5.05;;;23.50;31.00;;;;;;6244580;27;81143;-68
2021/03/11 13:30:17;;;;;;;7.63;4.55;;;23.50;30.70;;;;;;6241950;28;81557;-70
2021/03/11 13:33:18;;;;;;;9.02;4.65;;;23.40;30.60;;;;;;6253606;27;81159;-68
2021/03/11 13:36:18;;;;;;;7.95;5.07;;;23.50;31.10;;;;;;6245777;27;81147;-68
2021/03/11 13:39:19;;;;;;;11.00;4.70;;;23.40;31.20;;;;;;6224811;28;80861;-68
2021/03/11 13:42:20;;;;;;;8.23;5.03;;;23.40;31.40;;;;;;6220591;27;81640;-68
2021/03/11 13:45:20;;;;;;;8.75;4.97;;;23.50;30.70;;;;;;6241134;27;81748;-67
2021/03/11 13:48:21;;;;;;;8.07;5.50;;;23.50;31.10;;;;;;6227611;27;80929;-69
2021/03/11 13:51:22;;;;;;;6.40;4.85;;;23.50;30.60;;;;;;6247304;27;80736;-67
2021/03/11 13:54:24;;;;;;;10.32;5.57;;;23.50;30.20;;;;;;6250988;27;81790;-69
2021/03/11 13:57:25;;;;;;;8.98;5.00;;;23.50;30.10;;;;;;6247648;27;81761;-69
2021/03/11 14:00:25;;;;;;;7.70;5.50;;;23.50;29.80;;;;;;6247870;27;81284;-68
2021/03/11 14:03:26;;;;;;;8.80;5.95;;;23.40;29.50;;;;;;6238809;27;80731;-68
2021/03/11 14:06:26;;;;;;;9.50;6.07;;;23.50;29.50;;;;;;6242714;27;80981;-69
2021/03/11 14:09:27;;;;;;;10.27;6.25;;;23.50;29.20;;;;;;6232243;27;83345;-69
2021/03/11 14:12:27;;;;;;;9.15;5.93;;;23.50;29.00;;;;;;6233850;28;81117;-69
2021/03/11 14:15:28;;;;;;;502.15;181.20;;;23.50;28.80;;;;;;6247323;27;80901;-70
2021/03/11 14:18:29;;;;;;;492.20;175.85;;;23.50;28.90;;;;;;6221352;27;85594;-69
2021/03/11 14:21:30;;;;;;;258.75;95.18;;;23.50;28.90;;;;;;6209696;27;85609;-70
2021/03/11 14:24:30;;;;;;;236.07;86.25;;;23.50;28.60;;;;;;6235456;28;85273;-69
2021/03/11 14:27:31;;;;;;;208.02;74.28;;;23.50;28.70;;;;;;6230505;28;84226;-70
2021/03/11 14:30:31;;;;;;;168.77;62.10;;;23.50;28.60;;;;;;6233723;28;83340;-69
2021/03/11 14:33:32;;;;;;;155.23;55.65;;;23.50;28.40;;;;;;6214406;28;83352;-70
2021/03/11 14:36:32;;;;;;;125.80;47.20;;;23.50;28.80;;;;;;6232268;28;84078;-69
2021/03/11 14:39:33;;;;;;;104.32;37.92;;;23.50;27.90;;;;;;6219677;28;89617;-69
2021/03/11 14:42:34;;;;;;;96.40;35.35;;;23.50;27.70;;;;;;6237652;28;83306;-68
2021/03/11 14:45:34;;;;;;;97.45;32.15;;;23.50;27.70;;;;;;6209916;28;83426;-68
2021/03/11 14:48:35;;;;;;;69.65;27.00;;;23.50;27.70;;;;;;6238494;27;83934;-68
2021/03/11 14:51:35;;;;;;;71.25;26.00;;;23.50;27.50;;;;;;6243140;28;84094;-67
2021/03/11 14:54:36;;;;;;;65.90;24.95;;;23.50;27.50;;;;;;6231359;28;83678;-67
2021/03/11 14:57:36;;;;;;;59.47;22.50;;;23.50;28.00;;;;;;6244201;28;84007;-69
2021/03/11 15:00:37;;;;;;;53.90;21.95;;;23.60;28.20;;;;;;6238354;28;83214;-69
2021/03/11 15:03:37;;;;;;;59.05;20.52;;;23.50;28.30;;;;;;6235627;28;85156;-68
2021/03/11 15:06:38;;;;;;;46.35;18.02;;;23.60;28.40;;;;;;6233966;28;82907;-69
2021/03/11 15:09:38;;;;;;;45.85;16.30;;;23.50;28.60;;;;;;6240984;28;84098;-67
2021/03/11 15:12:39;;;;;;;39.65;16.38;;;23.60;28.70;;;;;;6246977;28;84412;-65
2021/03/11 15:15:39;;;;;;;36.97;16.15;;;23.50;28.90;;;;;;6244392;27;85599;-65
2021/03/11 15:18:40;;;;;;;30.65;15.50;;;23.50;29.30;;;;;;6239407;28;84185;-65